Oneida, Wisconsin
Current Conditions -  °F | °C
As of 10:53 AM on Saturday 22 Nov 2014 (Local Time) from KGRB Reporting Station
Haze Haze  
Wind Chill: 28°   Ceiling: 600
Heat Index: 36°   Visibility: 2.5mi
Dew Point: 33°   Wind: 12mph
Humidity: 89%   Direction: 210°SSW
Pressure: 29.83"   Gusts: NA
Location:  44.49°N, 88.22°W
Report Text: KGRB 221653Z 21010KT 2 1/2SM BR OVC006 02/01 A2983 RMK AO2 SLP109 T00220006
Loading
Personal Weather Stations






























Interactive Weather Map New forecast layout! Learn more

10-Day Weather Forecast

Advertisements
Track Severe Weather on mobile